createdAt,value
2023-01-26T00:01:23.265Z,23.37
2023-01-26T00:03:51.199Z,21.60
2023-01-26T00:06:20.686Z,21.93
2023-01-26T00:08:50.729Z,21.07
2023-01-26T00:11:24.410Z,19.73
2023-01-26T00:13:51.566Z,21.10
2023-01-26T00:16:18.819Z,23.50
2023-01-26T00:18:46.049Z,23.50
2023-01-26T00:21:16.292Z,20.10
2023-01-26T00:23:43.300Z,25.10
2023-01-26T00:26:14.438Z,21.37
2023-01-26T00:28:41.738Z,25.53
2023-01-26T00:31:32.798Z,25.13
2023-01-26T00:33:59.684Z,26.00
2023-01-26T00:36:27.585Z,26.40
2023-01-26T00:38:54.448Z,25.70
2023-01-26T00:41:39.576Z,25.00
2023-01-26T00:44:06.480Z,26.47
2023-01-26T00:46:33.353Z,27.73
2023-01-26T00:49:00.917Z,23.53
2023-01-26T00:51:28.016Z,24.43
2023-01-26T00:53:54.823Z,25.23
2023-01-26T00:56:21.918Z,23.53
2023-01-26T00:58:48.768Z,24.37
2023-01-26T01:01:15.641Z,23.43
2023-01-26T01:03:42.736Z,27.77
2023-01-26T01:06:09.579Z,27.20
2023-01-26T01:08:36.418Z,25.80
2023-01-26T01:11:09.152Z,28.00
2023-01-26T01:13:36.073Z,25.27
2023-01-26T01:16:12.576Z,25.37
2023-01-26T01:18:40.023Z,27.77
2023-01-26T01:21:11.534Z,27.27
2023-01-26T01:23:38.686Z,29.87
2023-01-26T01:26:06.467Z,30.83
2023-01-26T01:28:35.413Z,34.40
2023-01-26T01:31:11.889Z,28.63
2023-01-26T01:33:39.608Z,30.97
2023-01-26T01:36:13.829Z,31.80
2023-01-26T01:38:41.835Z,29.00
2023-01-26T01:41:09.604Z,30.83
2023-01-26T01:43:37.222Z,27.20
2023-01-26T01:46:25.435Z,27.43
2023-01-26T01:49:01.854Z,27.63
2023-01-26T01:51:41.664Z,26.67
2023-01-26T01:54:15.935Z,29.50
2023-01-26T01:56:49.813Z,26.97
2023-01-26T01:59:20.684Z,26.67
2023-01-26T02:01:50.922Z,26.40
2023-01-26T02:04:20.130Z,27.93
2023-01-26T02:06:54.181Z,27.87
2023-01-26T02:09:46.677Z,25.47
2023-01-26T02:12:15.311Z,23.00
2023-01-26T02:14:42.733Z,28.27
2023-01-26T02:17:10.107Z,28.03
2023-01-26T02:20:12.189Z,25.90
2023-01-26T02:23:26.270Z,26.37
2023-01-26T02:25:53.017Z,26.33
2023-01-26T02:28:25.733Z,23.47
2023-01-26T02:30:54.196Z,26.87
2023-01-26T02:33:29.793Z,26.23
2023-01-26T02:35:56.674Z,25.50
2023-01-26T02:38:31.102Z,23.87
2023-01-26T02:41:07.235Z,25.77
2023-01-26T02:43:34.144Z,25.93
2023-01-26T02:46:01.025Z,24.20
2023-01-26T02:48:46.252Z,27.73
2023-01-26T02:51:13.310Z,25.03
2023-01-26T02:53:40.374Z,25.60
2023-01-26T02:56:07.544Z,26.87
2023-01-26T02:58:34.849Z,27.13
2023-01-26T03:01:01.847Z,26.00
2023-01-26T03:03:42.078Z,29.37
2023-01-26T03:06:10.946Z,32.30
2023-01-26T03:08:38.546Z,30.77
2023-01-26T03:11:07.247Z,31.10
2023-01-26T03:13:34.607Z,28.40
2023-01-26T03:16:06.746Z,27.17
2023-01-26T03:18:54.189Z,29.87
2023-01-26T03:21:39.902Z,27.13
2023-01-26T03:24:30.776Z,29.43
2023-01-26T03:27:15.941Z,28.67
2023-01-26T03:29:42.799Z,27.80
2023-01-26T03:32:09.787Z,29.40
2023-01-26T03:34:36.819Z,27.67
2023-01-26T03:37:04.375Z,27.83
2023-01-26T03:39:49.483Z,24.10
2023-01-26T03:42:34.606Z,25.80
2023-01-26T03:45:19.981Z,29.27
2023-01-26T03:48:05.142Z,28.80
2023-01-26T03:50:50.373Z,30.80
2023-01-26T03:53:38.886Z,27.57
2023-01-26T03:56:24.700Z,28.17
2023-01-26T03:58:55.196Z,27.83
2023-01-26T04:01:27.815Z,27.00
2023-01-26T04:04:16.204Z,28.93
2023-01-26T04:07:04.356Z,26.47
2023-01-26T04:09:32.695Z,24.73
2023-01-26T04:12:00.189Z,25.10
2023-01-26T04:14:50.077Z,26.10
2023-01-26T04:17:36.820Z,26.97
2023-01-26T04:20:24.937Z,22.07
2023-01-26T04:22:51.869Z,25.80
2023-01-26T04:25:21.667Z,21.77
2023-01-26T04:27:48.583Z,24.13
2023-01-26T04:30:17.614Z,23.43
2023-01-26T04:32:46.168Z,26.63
2023-01-26T04:35:13.324Z,25.87
2023-01-26T04:37:40.432Z,24.57
2023-01-26T04:40:08.560Z,27.67
2023-01-26T04:42:35.517Z,28.87
2023-01-26T04:45:02.466Z,25.63
2023-01-26T04:47:29.597Z,29.63
2023-01-26T04:49:56.474Z,28.77
2023-01-26T04:52:23.567Z,24.40
2023-01-26T04:54:50.424Z,28.40
2023-01-26T04:57:20.188Z,22.40
2023-01-26T04:59:47.216Z,23.17
2023-01-26T05:02:14.177Z,24.20
2023-01-26T05:04:40.967Z,21.93
2023-01-26T05:07:07.794Z,26.07
2023-01-26T05:09:34.656Z,25.00
2023-01-26T05:12:21.453Z,22.97
2023-01-26T05:14:48.329Z,26.27
2023-01-26T05:17:15.118Z,23.27
2023-01-26T05:19:41.921Z,27.10
2023-01-26T05:22:09.935Z,25.63
2023-01-26T05:24:37.789Z,26.43
2023-01-26T05:27:22.701Z,26.93
2023-01-26T05:29:51.296Z,29.57
2023-01-26T05:32:18.749Z,25.80
2023-01-26T05:34:46.084Z,26.47
2023-01-26T05:37:14.802Z,27.87
2023-01-26T05:39:42.220Z,23.70
2023-01-26T05:42:09.298Z,25.93
2023-01-26T05:44:36.171Z,27.37
2023-01-26T05:47:03.035Z,24.07
2023-01-26T05:49:30.181Z,25.90
2023-01-26T05:51:57.200Z,24.93
2023-01-26T05:54:24.484Z,26.40
2023-01-26T05:56:53.254Z,26.00
2023-01-26T05:59:20.104Z,22.97
2023-01-26T06:01:46.938Z,25.67
2023-01-26T06:04:14.053Z,21.57
2023-01-26T06:06:40.910Z,23.73
2023-01-26T06:09:07.741Z,23.10
2023-01-26T06:11:34.650Z,27.60
2023-01-26T06:14:01.556Z,23.53
2023-01-26T06:16:28.471Z,26.37
2023-01-26T06:18:55.458Z,24.07
2023-01-26T06:21:22.459Z,23.27
2023-01-26T06:23:49.234Z,24.40
2023-01-26T06:26:16.237Z,27.93
2023-01-26T06:28:43.229Z,24.17
2023-01-26T06:31:10.860Z,23.67
2023-01-26T06:33:38.783Z,26.30
2023-01-26T06:36:10.022Z,27.60
2023-01-26T06:38:37.668Z,23.97
2023-01-26T06:41:07.351Z,26.57
2023-01-26T06:43:35.881Z,23.37
2023-01-26T06:46:04.919Z,26.00
2023-01-26T06:48:35.026Z,23.57
2023-01-26T06:51:20.586Z,23.63
2023-01-26T06:53:58.438Z,23.27
2023-01-26T06:56:28.645Z,24.37
2023-01-26T06:58:55.546Z,24.30
2023-01-26T07:01:26.895Z,24.10
2023-01-26T07:03:55.519Z,24.30
2023-01-26T07:06:22.385Z,25.07
2023-01-26T07:08:49.211Z,25.20
2023-01-26T07:11:17.272Z,26.20
2023-01-26T07:13:44.147Z,27.20
2023-01-26T07:16:14.530Z,23.23
2023-01-26T07:18:42.022Z,25.27
2023-01-26T07:21:15.149Z,23.47
2023-01-26T07:23:42.532Z,25.60
2023-01-26T07:26:09.741Z,27.73
2023-01-26T07:28:39.214Z,24.33
2023-01-26T07:31:08.326Z,24.97
2023-01-26T07:33:35.791Z,23.73
2023-01-26T07:36:03.970Z,25.63
2023-01-26T07:38:32.132Z,24.20
2023-01-26T07:40:59.006Z,24.73
2023-01-26T07:43:26.033Z,24.50
2023-01-26T07:45:54.628Z,24.83
2023-01-26T07:48:24.214Z,21.50
2023-01-26T07:50:51.638Z,23.40
2023-01-26T07:53:19.598Z,23.93
2023-01-26T07:55:47.164Z,24.80
2023-01-26T07:58:14.243Z,24.70
2023-01-26T08:00:41.074Z,21.20
2023-01-26T08:03:08.481Z,25.97
2023-01-26T08:05:36.988Z,23.87
2023-01-26T08:08:04.415Z,20.60
2023-01-26T08:10:32.035Z,22.80
2023-01-26T08:13:02.215Z,22.27
2023-01-26T08:15:29.895Z,22.43
2023-01-26T08:17:56.842Z,21.97
2023-01-26T08:20:24.099Z,22.83
2023-01-26T08:22:51.049Z,20.53
2023-01-26T08:25:17.938Z,23.27
2023-01-26T08:27:44.803Z,22.50
2023-01-26T08:30:13.356Z,22.17
2023-01-26T08:32:40.299Z,26.00
2023-01-26T08:35:08.070Z,22.20
2023-01-26T08:37:34.892Z,22.90
2023-01-26T08:40:01.784Z,20.03
2023-01-26T08:42:28.932Z,20.63
2023-01-26T08:44:55.808Z,20.83
2023-01-26T08:47:22.626Z,21.77
2023-01-26T08:49:49.513Z,23.07
2023-01-26T08:52:16.777Z,21.93
2023-01-26T08:54:43.639Z,20.83
2023-01-26T08:57:11.796Z,21.30
2023-01-26T08:59:38.637Z,19.23
2023-01-26T09:02:06.045Z,19.33
2023-01-26T09:04:33.568Z,20.00
2023-01-26T09:07:00.422Z,22.17
2023-01-26T09:09:27.229Z,21.73
2023-01-26T09:11:57.187Z,19.97
2023-01-26T09:14:24.323Z,22.50
2023-01-26T09:16:51.219Z,21.20
2023-01-26T09:19:18.114Z,27.83
2023-01-26T09:21:44.986Z,26.07
2023-01-26T09:24:11.948Z,34.97
2023-01-26T09:26:38.781Z,36.10
2023-01-26T09:29:05.619Z,30.13
2023-01-26T09:31:32.525Z,25.73
2023-01-26T09:33:59.444Z,23.47
2023-01-26T09:36:26.453Z,18.87
2023-01-26T09:38:54.083Z,26.10
2023-01-26T09:41:51.543Z,27.07
2023-01-26T09:44:26.097Z,18.47
2023-01-26T09:47:37.201Z,22.10
2023-01-26T09:50:40.258Z,17.57
2023-01-26T09:53:25.117Z,20.53
2023-01-26T09:55:52.723Z,19.47
2023-01-26T09:58:34.622Z,17.40
2023-01-26T10:01:03.977Z,22.97
2023-01-26T10:04:02.761Z,21.47
2023-01-26T10:06:32.365Z,22.40
2023-01-26T10:09:21.828Z,23.13
2023-01-26T10:11:58.142Z,20.00
2023-01-26T10:14:44.686Z,19.63
2023-01-26T10:17:20.025Z,23.57
2023-01-26T10:19:54.318Z,20.80
2023-01-26T10:22:42.820Z,20.80
2023-01-26T10:25:34.612Z,21.80
2023-01-26T10:28:25.069Z,21.77
2023-01-26T10:30:52.925Z,20.57
2023-01-26T10:33:34.445Z,21.73
2023-01-26T10:36:04.281Z,23.80
2023-01-26T10:38:34.031Z,25.03
2023-01-26T10:41:26.275Z,24.97
2023-01-26T10:44:07.479Z,30.53
2023-01-26T10:46:41.157Z,29.53
2023-01-26T10:49:17.209Z,24.97
2023-01-26T10:51:47.381Z,25.80
2023-01-26T10:54:27.734Z,26.30
2023-01-26T10:57:03.612Z,20.77
2023-01-26T10:59:32.505Z,29.23
2023-01-26T11:02:22.283Z,29.67
2023-01-26T11:05:08.723Z,21.93
2023-01-26T11:07:44.727Z,22.37
2023-01-26T11:10:23.467Z,27.60
2023-01-26T11:12:52.095Z,23.10
2023-01-26T11:15:27.448Z,26.07
2023-01-26T11:18:50.842Z,26.38
2023-01-26T11:21:32.119Z,24.83
2023-01-26T11:24:17.578Z,24.03
2023-01-26T11:27:35.664Z,22.63
2023-01-26T11:30:27.447Z,21.10
2023-01-26T11:33:12.240Z,27.90
2023-01-26T11:36:06.760Z,30.70
2023-01-26T11:38:41.044Z,33.50
2023-01-26T11:41:33.833Z,32.63
2023-01-26T11:44:24.790Z,27.27
2023-01-26T11:47:21.638Z,19.53
2023-01-26T11:49:59.975Z,23.30
2023-01-26T11:52:59.762Z,30.13
2023-01-26T11:55:44.298Z,22.20
2023-01-26T11:59:15.399Z,17.17
2023-01-26T12:01:49.325Z,15.17
2023-01-26T12:04:22.236Z,15.80
2023-01-26T12:07:14.852Z,30.50
2023-01-26T12:09:46.915Z,22.23
2023-01-26T12:12:38.424Z,21.43
2023-01-26T12:15:24.732Z,38.00
2023-01-26T12:18:12.521Z,18.13
2023-01-26T12:20:51.558Z,18.50
2023-01-26T12:23:26.726Z,16.00
2023-01-26T12:26:00.510Z,15.97
2023-01-26T12:28:45.505Z,17.03
2023-01-26T12:31:18.720Z,12.67
2023-01-26T12:33:47.466Z,12.13
2023-01-26T12:36:38.629Z,13.87
2023-01-26T12:39:26.660Z,11.80
2023-01-26T12:42:19.598Z,15.73
2023-01-26T12:45:21.895Z,18.80
2023-01-26T12:48:17.544Z,19.63
2023-01-26T12:50:58.518Z,17.80
2023-01-26T12:53:31.404Z,17.87
2023-01-26T12:56:24.336Z,35.50
2023-01-26T12:58:53.394Z,28.57
2023-01-26T13:01:24.360Z,19.10
2023-01-26T13:03:59.212Z,14.07
2023-01-26T13:06:28.708Z,13.90
2023-01-26T13:09:04.483Z,12.13
2023-01-26T13:11:56.656Z,11.30
2023-01-26T13:14:29.387Z,12.83
2023-01-26T13:16:57.950Z,14.37
2023-01-26T13:19:44.105Z,13.10
2023-01-26T13:22:23.457Z,11.70
2023-01-26T13:24:56.623Z,13.10
2023-01-26T13:27:38.456Z,13.13
2023-01-26T13:30:23.949Z,13.77
2023-01-26T13:32:54.829Z,12.97
2023-01-26T13:35:25.215Z,16.83
2023-01-26T13:38:29.125Z,12.77
2023-01-26T13:40:56.081Z,12.47
2023-01-26T13:43:48.815Z,13.83
2023-01-26T13:46:40.008Z,15.90
2023-01-26T13:49:36.963Z,12.83
2023-01-26T13:52:14.751Z,15.13
2023-01-26T13:54:43.527Z,12.83
2023-01-26T13:57:23.776Z,14.30
2023-01-26T14:00:01.052Z,15.93
2023-01-26T14:02:35.839Z,14.23
2023-01-26T14:05:03.327Z,15.47
2023-01-26T14:07:40.305Z,15.73
2023-01-26T14:10:08.399Z,16.57
2023-01-26T14:12:42.527Z,13.17
2023-01-26T14:15:28.817Z,12.97
2023-01-26T14:18:09.005Z,15.60
2023-01-26T14:20:39.457Z,16.67
2023-01-26T14:23:18.770Z,13.07
2023-01-26T14:26:21.242Z,14.27
2023-01-26T14:28:48.299Z,13.77
2023-01-26T14:31:24.732Z,15.30
2023-01-26T14:33:57.302Z,11.80
2023-01-26T14:36:29.361Z,13.37
2023-01-26T14:38:56.908Z,13.23
2023-01-26T14:41:31.761Z,12.37
2023-01-26T14:44:05.792Z,14.70
2023-01-26T14:46:44.651Z,13.00
2023-01-26T14:49:48.363Z,14.40
2023-01-26T14:52:39.937Z,12.63
2023-01-26T14:55:18.748Z,13.23
2023-01-26T14:57:45.588Z,14.27
2023-01-26T15:00:30.512Z,14.30
2023-01-26T15:03:00.673Z,13.30
2023-01-26T15:05:41.111Z,13.17
2023-01-26T15:08:25.369Z,12.40
2023-01-26T15:11:19.726Z,14.17
2023-01-26T15:13:53.530Z,10.53
2023-01-26T15:16:23.695Z,12.70
2023-01-26T15:19:08.418Z,24.73
2023-01-26T15:21:39.833Z,17.60
2023-01-26T15:24:13.896Z,16.20
2023-01-26T15:26:41.526Z,11.83
2023-01-26T15:29:26.107Z,16.53
2023-01-26T15:31:56.397Z,18.47
2023-01-26T15:34:40.507Z,17.57
2023-01-26T15:37:31.526Z,15.80
2023-01-26T15:39:58.601Z,19.40
2023-01-26T15:42:31.178Z,21.90
2023-01-26T15:44:58.275Z,45.47
2023-01-26T15:47:25.220Z,41.03
2023-01-26T15:49:52.206Z,33.67
2023-01-26T15:52:28.563Z,21.30
2023-01-26T15:54:55.438Z,16.37
2023-01-26T15:57:22.303Z,12.90
2023-01-26T15:59:49.182Z,14.03
2023-01-26T16:02:19.701Z,12.83
2023-01-26T16:04:47.320Z,12.63
2023-01-26T16:07:18.892Z,14.20
2023-01-26T16:09:45.782Z,13.03
2023-01-26T16:12:30.492Z,12.33
2023-01-26T16:14:57.917Z,12.23
2023-01-26T16:17:24.770Z,14.17
2023-01-26T16:19:51.608Z,13.87
2023-01-26T16:22:18.431Z,12.67
2023-01-26T16:24:46.714Z,14.60
2023-01-26T16:27:13.567Z,13.13
2023-01-26T16:29:40.499Z,12.77
2023-01-26T16:32:28.739Z,13.83
2023-01-26T16:34:55.570Z,12.87
2023-01-26T16:37:22.525Z,15.50
2023-01-26T16:39:49.301Z,15.27
2023-01-26T16:42:21.203Z,12.60
2023-01-26T16:44:48.477Z,12.70
2023-01-26T16:47:15.521Z,11.93
2023-01-26T16:49:42.343Z,14.23
2023-01-26T16:52:09.978Z,14.40
2023-01-26T16:54:36.938Z,16.30
2023-01-26T16:57:03.984Z,14.47
2023-01-26T16:59:30.941Z,12.70
2023-01-26T17:01:58.071Z,13.67
2023-01-26T17:04:24.894Z,13.80
2023-01-26T17:06:51.853Z,13.77
2023-01-26T17:09:18.745Z,13.63
2023-01-26T17:11:45.586Z,14.40
2023-01-26T17:14:13.112Z,21.57
2023-01-26T17:16:40.072Z,19.17
2023-01-26T17:19:09.130Z,16.83
2023-01-26T17:21:42.303Z,14.43
2023-01-26T17:24:11.112Z,16.10
2023-01-26T17:26:38.113Z,15.80
2023-01-26T17:29:05.519Z,17.97
2023-01-26T17:31:32.458Z,16.63
2023-01-26T17:33:59.376Z,15.83
2023-01-26T17:36:26.365Z,14.67
2023-01-26T17:38:54.086Z,17.50
2023-01-26T17:41:21.171Z,14.30
2023-01-26T17:43:48.046Z,15.10
2023-01-26T17:46:20.901Z,13.83
2023-01-26T17:48:49.143Z,16.07
2023-01-26T17:51:20.859Z,14.57
2023-01-26T17:53:49.806Z,15.83
2023-01-26T17:56:19.477Z,14.83
2023-01-26T17:58:52.560Z,13.90
2023-01-26T18:01:20.921Z,15.07
2023-01-26T18:03:48.317Z,14.47
2023-01-26T18:06:15.811Z,14.80
2023-01-26T18:08:43.045Z,14.27
2023-01-26T18:11:12.555Z,15.00
2023-01-26T18:13:40.115Z,14.93
2023-01-26T18:16:09.122Z,13.03
2023-01-26T18:18:36.288Z,14.33
2023-01-26T18:21:17.058Z,15.47
2023-01-26T18:23:49.454Z,14.40
2023-01-26T18:26:18.926Z,15.87
2023-01-26T18:28:47.069Z,14.80
2023-01-26T18:31:36.872Z,14.83
2023-01-26T18:34:04.688Z,15.10
2023-01-26T18:36:32.029Z,16.73
2023-01-26T18:39:03.510Z,14.57
2023-01-26T18:41:31.126Z,13.50
2023-01-26T18:43:59.201Z,17.17
2023-01-26T18:46:28.212Z,15.30
2023-01-26T18:49:00.553Z,16.10
2023-01-26T18:51:30.356Z,17.87
2023-01-26T18:53:57.694Z,16.67
2023-01-26T18:56:24.931Z,14.70
2023-01-26T18:58:53.673Z,15.93
2023-01-26T19:01:21.876Z,15.77
2023-01-26T19:03:54.041Z,17.30
2023-01-26T19:06:22.752Z,15.90
2023-01-26T19:09:01.132Z,18.83
2023-01-26T19:11:31.736Z,16.87
2023-01-26T19:13:59.576Z,19.67
2023-01-26T19:16:27.176Z,16.30
2023-01-26T19:18:55.393Z,19.87
2023-01-26T19:21:24.734Z,18.00
2023-01-26T19:23:54.064Z,18.07
2023-01-26T19:26:25.558Z,16.20
2023-01-26T19:28:53.875Z,19.90
2023-01-26T19:31:22.278Z,20.60
2023-01-26T19:34:01.177Z,18.67
2023-01-26T19:36:31.376Z,19.30
2023-01-26T19:38:58.621Z,21.00
2023-01-26T19:41:26.323Z,20.13
2023-01-26T19:43:53.465Z,21.90
2023-01-26T19:46:20.854Z,20.07
2023-01-26T19:48:48.612Z,19.20
2023-01-26T19:51:24.484Z,20.17
2023-01-26T19:53:58.141Z,19.73
2023-01-26T19:56:31.863Z,20.97
2023-01-26T19:59:01.591Z,19.00
2023-01-26T20:01:30.607Z,19.00
2023-01-26T20:04:01.269Z,22.43
2023-01-26T20:06:32.459Z,18.93
2023-01-26T20:09:00.585Z,22.97
2023-01-26T20:11:29.500Z,22.73
2023-01-26T20:14:02.563Z,23.20
2023-01-26T20:16:30.393Z,24.17
2023-01-26T20:18:59.184Z,25.50
2023-01-26T20:21:27.695Z,24.30
2023-01-26T20:23:55.957Z,27.03
2023-01-26T20:26:25.466Z,25.60
2023-01-26T20:28:52.766Z,26.93
2023-01-26T20:31:23.637Z,25.63
2023-01-26T20:33:53.271Z,29.63
2023-01-26T20:36:24.662Z,31.17
2023-01-26T20:38:52.173Z,28.77
2023-01-26T20:41:23.725Z,28.30
2023-01-26T20:44:02.355Z,26.37
2023-01-26T20:46:39.295Z,31.07
2023-01-26T20:49:08.639Z,27.40
2023-01-26T20:51:38.222Z,28.47
2023-01-26T20:54:07.180Z,31.40
2023-01-26T20:56:35.482Z,29.53
2023-01-26T20:59:03.010Z,33.63
2023-01-26T21:01:30.284Z,29.27
2023-01-26T21:03:57.138Z,27.07
2023-01-26T21:06:24.569Z,27.43
2023-01-26T21:08:55.057Z,27.97
2023-01-26T21:11:28.785Z,29.30
2023-01-26T21:14:03.056Z,30.33
2023-01-26T21:16:32.016Z,27.97
2023-01-26T21:18:59.175Z,28.23
2023-01-26T21:21:26.448Z,28.70
2023-01-26T21:23:53.305Z,26.17
2023-01-26T21:26:23.312Z,29.20
2023-01-26T21:28:56.224Z,32.60
2023-01-26T21:31:26.102Z,30.93
2023-01-26T21:33:53.932Z,26.70
2023-01-26T21:36:24.410Z,27.27
2023-01-26T21:38:53.499Z,25.10
2023-01-26T21:41:58.167Z,26.90
2023-01-26T21:44:28.362Z,27.67
2023-01-26T21:46:59.303Z,27.17
2023-01-26T21:49:28.588Z,27.83
2023-01-26T21:52:14.385Z,30.57
2023-01-26T21:54:41.675Z,26.70
2023-01-26T21:57:30.118Z,25.73
2023-01-26T21:59:57.166Z,26.60
2023-01-26T22:02:24.353Z,27.87
2023-01-26T22:04:51.534Z,23.83
2023-01-26T22:07:18.633Z,25.40
2023-01-26T22:09:45.667Z,22.23
2023-01-26T22:12:12.807Z,22.30
2023-01-26T22:14:40.102Z,19.20
2023-01-26T22:17:07.807Z,20.10
2023-01-26T22:19:35.163Z,17.97
2023-01-26T22:22:03.438Z,19.13
2023-01-26T22:24:30.313Z,16.97
2023-01-26T22:26:57.616Z,17.33
2023-01-26T22:29:24.532Z,17.20
2023-01-26T22:31:51.907Z,15.33
2023-01-26T22:34:18.822Z,15.63
2023-01-26T22:36:45.667Z,17.70
2023-01-26T22:39:12.570Z,18.97
2023-01-26T22:41:40.057Z,17.40
2023-01-26T22:44:07.026Z,18.47
2023-01-26T22:46:34.432Z,17.83
2023-01-26T22:49:01.240Z,19.23
2023-01-26T22:51:30.989Z,18.03
2023-01-26T22:53:59.182Z,16.80
2023-01-26T22:56:26.893Z,19.13
2023-01-26T22:59:00.580Z,19.00
2023-01-26T23:01:33.045Z,17.37
2023-01-26T23:04:01.300Z,17.30
2023-01-26T23:06:29.529Z,17.60
2023-01-26T23:08:58.470Z,18.60
2023-01-26T23:11:28.490Z,18.20
2023-01-26T23:13:58.442Z,15.73
2023-01-26T23:16:26.548Z,15.13
2023-01-26T23:18:55.778Z,18.00
2023-01-26T23:21:23.704Z,16.47
2023-01-26T23:23:50.820Z,16.27
2023-01-26T23:26:18.105Z,14.53
2023-01-26T23:28:45.407Z,13.90
2023-01-26T23:31:14.883Z,14.10
2023-01-26T23:33:42.332Z,14.47
2023-01-26T23:36:11.640Z,12.67
2023-01-26T23:38:38.712Z,11.10
2023-01-26T23:41:06.521Z,11.10
2023-01-26T23:43:33.342Z,10.13
2023-01-26T23:46:00.530Z,9.67
2023-01-26T23:48:27.365Z,9.53
2023-01-26T23:51:04.011Z,10.07
2023-01-26T23:53:31.377Z,9.20
2023-01-26T23:56:00.756Z,8.33
2023-01-26T23:58:27.986Z,9.90
